Time;durP1;ratioP1;P1;durP2;ratioP2;P2;SDS_P1;SDS_P2;PMS_P1;PMS_P2;Temp;Humidity;BMP_temperature;BMP_pressure;BME280_temperature;BME280_humidity;BME280_pressure;Samples;Min_cycle;Max_cycle;Signal;HPM_P1;HPM_P2
2022/09/08 00:01:32;;;;;;;;;;;22.80;63.80;;;;;;5094865;28;19989;-69
2022/09/08 00:03:58;;;;;;;;;;;22.90;63.80;;;;;;5076904;28;20427;-69
2022/09/08 00:06:23;;;;;;;;;;;22.80;63.70;;;;;;5076675;28;19927;-69
2022/09/08 00:08:51;;;;;;;;;;;22.80;63.80;;;;;;5094653;28;19920;-69
2022/09/08 00:11:18;;;;;;;;;;;22.80;63.70;;;;;;5076549;28;19920;-69
2022/09/08 00:13:44;;;;;;;;;;;22.80;63.70;;;;;;5094614;28;20264;-69
2022/09/08 00:16:10;;;;;;;;;;;22.80;63.70;;;;;;5076796;28;19932;-69
2022/09/08 00:18:36;;;;;;;;;;;22.80;63.70;;;;;;5076702;28;19990;-69
2022/09/08 00:21:02;;;;;;;;;;;22.80;63.70;;;;;;5093554;28;19974;-69
2022/09/08 00:23:28;;;;;;;;;;;22.80;63.80;;;;;;5094203;28;19920;-69
2022/09/08 00:25:54;;;;;;;;;;;22.80;63.80;;;;;;5076553;28;19920;-69
2022/09/08 00:28:19;;;;;;;;;;;22.80;63.80;;;;;;5094748;28;19920;-69
2022/09/08 00:30:45;;;;;;;;;;;22.80;63.80;;;;;;5076045;28;19967;-69
2022/09/08 00:33:10;;;;;;;;;;;22.80;63.70;;;;;;5093281;28;20014;-69
2022/09/08 00:35:36;;;;;;;;;;;22.70;64.40;;;;;;5092858;28;20411;-69
2022/09/08 00:38:01;;;;;;;;;;;22.70;63.70;;;;;;5075965;28;19920;-69
2022/09/08 00:40:29;;;;;;;;;;;22.80;63.70;;;;;;5076158;28;19971;-69
2022/09/08 00:43:03;;;;;;;;;;;22.70;63.60;;;;;;5076185;28;19963;-69
2022/09/08 00:45:31;;;;;;;;;;;22.70;63.70;;;;;;5092640;28;19920;-69
2022/09/08 00:47:59;;;;;;;;;;;22.70;63.70;;;;;;5094064;28;19978;-69
2022/09/08 00:50:27;;;;;;;;;;;22.80;63.80;;;;;;5075976;28;19974;-69
2022/09/08 00:53:00;;;;;;;;;;;22.80;63.80;;;;;;5092660;28;20203;-69
2022/09/08 00:55:26;;;;;;;;;;;22.70;63.60;;;;;;5093691;28;20018;-69
2022/09/08 00:57:52;;;;;;;;;;;22.70;63.70;;;;;;5075632;28;20008;-69
2022/09/08 01:00:18;;;;;;;;;;;22.70;63.70;;;;;;5075686;28;19967;-69
2022/09/08 01:02:44;;;;;;;;;;;22.70;63.70;;;;;;5093772;28;19920;-69
2022/09/08 01:05:10;;;;;;;;;;;22.70;63.60;;;;;;5091738;28;20003;-69
2022/09/08 01:13:23;;;;;;;;;;;22.70;63.80;;;;;;5093396;28;20358;-69
2022/09/08 01:15:49;;;;;;;;;;;22.60;63.70;;;;;;5075430;28;20296;-69
2022/09/08 01:18:14;;;;;;;;;;;22.70;63.70;;;;;;5093414;28;19924;-69
2022/09/08 01:21:00;;;;;;;;;;;22.60;63.70;;;;;;5091648;28;19930;-69
2022/09/08 01:23:34;;;;;;;;;;;22.70;63.70;;;;;;5074881;28;19969;-69
2022/09/08 01:26:19;;;;;;;;;;;22.70;63.70;;;;;;5075088;28;19920;-69
2022/09/08 01:31:25;;;;;;;;;;;22.70;63.70;;;;;;5110222;27;19918;-69
2022/09/08 01:33:51;;;;;;;;;;;22.70;63.70;;;;;;5110157;28;19974;-69
2022/09/08 01:36:18;;;;;;;;;;;22.70;63.80;;;;;;5108845;28;20307;-69
2022/09/08 01:38:44;;;;;;;;;;;22.70;63.70;;;;;;5109183;28;19920;-69
2022/09/08 01:41:09;;;;;;;;;;;22.60;63.70;;;;;;5109073;28;19973;-69
2022/09/08 01:43:35;;;;;;;;;;;22.60;63.70;;;;;;5108776;28;20431;-69
2022/09/08 01:46:01;;;;;;;;;;;22.60;63.70;;;;;;5108909;28;19930;-69
2022/09/08 01:48:26;;;;;;;;;;;22.70;63.70;;;;;;5110216;28;19924;-69
2022/09/08 01:50:57;;;;;;;;;;;22.60;63.70;;;;;;5108780;28;19976;-69
2022/09/08 01:53:23;;;;;;;;;;;22.60;63.70;;;;;;5110241;28;19974;-69
2022/09/08 01:55:48;;;;;;;;;;;22.60;63.70;;;;;;5109907;28;19970;-69
2022/09/08 01:58:13;;;;;;;;;;;22.60;63.70;;;;;;5108386;28;19920;-69
2022/09/08 02:00:40;;;;;;;;;;;22.60;63.70;;;;;;5108485;28;19924;-69
2022/09/08 02:03:05;;;;;;;;;;;22.60;63.70;;;;;;5109596;28;19924;-69
2022/09/08 02:05:31;;;;;;;;;;;22.60;63.70;;;;;;5108710;28;19920;-69
2022/09/08 02:07:56;;;;;;;;;;;22.60;63.70;;;;;;5108264;28;20379;-69
2022/09/08 02:10:25;;;;;;;;;;;22.60;63.70;;;;;;5108203;28;19924;-69
2022/09/08 02:12:50;;;;;;;;;;;22.60;63.70;;;;;;5108171;28;19974;-69
2022/09/08 02:15:16;;;;;;;;;;;22.60;63.70;;;;;;5108138;28;19971;-69
2022/09/08 02:17:41;;;;;;;;;;;22.50;63.60;;;;;;5109417;28;19967;-69
2022/09/08 02:20:07;;;;;;;;;;;22.60;63.70;;;;;;5109505;28;20419;-69
2022/09/08 02:22:33;;;;;;;;;;;22.60;63.70;;;;;;5107963;28;19926;-69
2022/09/08 02:24:59;;;;;;;;;;;22.60;63.70;;;;;;5108302;28;19923;-69
2022/09/08 02:27:24;;;;;;;;;;;22.60;63.70;;;;;;5108219;28;20283;-69
2022/09/08 02:29:50;;;;;;;;;;;22.60;63.70;;;;;;5107665;28;20392;-69
2022/09/08 02:32:15;;;;;;;;;;;22.60;63.70;;;;;;5107861;28;19987;-69
2022/09/08 02:34:41;;;;;;;;;;;22.60;63.70;;;;;;5109223;28;19920;-69
2022/09/08 02:37:06;;;;;;;;;;;22.50;63.60;;;;;;5091174;28;19924;-69
2022/09/08 02:39:32;;;;;;;;;;;22.60;63.70;;;;;;5108964;28;19928;-69
2022/09/08 02:41:57;;;;;;;;;;;22.50;63.70;;;;;;5099697;28;20011;-69
2022/09/08 02:44:23;;;;;;;;;;;22.50;63.60;;;;;;5093250;28;19920;-69
2022/09/08 02:46:48;;;;;;;;;;;22.60;63.70;;;;;;5093744;28;19943;-69
2022/09/08 02:49:14;;;;;;;;;;;22.50;63.60;;;;;;5094131;28;20018;-69
2022/09/08 02:51:40;;;;;;;;;;;22.50;63.70;;;;;;5094262;28;20276;-69
2022/09/08 02:54:06;;;;;;;;;;;22.50;63.60;;;;;;5094125;28;20359;-69
2022/09/08 02:56:31;;;;;;;;;;;22.50;63.70;;;;;;5093835;28;20391;-69
2022/09/08 02:58:57;;;;;;;;;;;22.50;63.60;;;;;;5094957;28;19924;-69
2022/09/08 03:01:22;;;;;;;;;;;22.50;63.60;;;;;;5093904;28;19963;-69
2022/09/08 03:03:48;;;;;;;;;;;22.50;63.60;;;;;;5093979;28;19920;-69
2022/09/08 03:06:14;;;;;;;;;;;22.50;63.70;;;;;;5094942;28;20348;-69
2022/09/08 03:08:40;;;;;;;;;;;22.50;63.70;;;;;;5093827;28;20399;-69
2022/09/08 03:11:05;;;;;;;;;;;22.50;63.70;;;;;;5093689;28;19962;-69
2022/09/08 03:13:31;;;;;;;;;;;22.50;63.70;;;;;;5094891;28;20490;-69
2022/09/08 03:15:57;;;;;;;;;;;22.50;63.70;;;;;;5094731;28;19924;-69
2022/09/08 03:18:23;;;;;;;;;;;22.50;64.40;;;;;;5094670;28;20387;-69
2022/09/08 03:20:57;;;;;;;;;;;22.50;63.70;;;;;;5093593;28;20199;-69
2022/09/08 03:23:24;;;;;;;;;;;22.50;63.70;;;;;;5094754;28;20338;-69
2022/09/08 03:25:50;;;;;;;;;;;22.40;63.70;;;;;;5093559;28;20351;-69
2022/09/08 03:28:18;;;;;;;;;;;22.50;63.70;;;;;;5093526;28;20003;-69
2022/09/08 03:30:44;;;;;;;;;;;22.50;63.70;;;;;;5092695;28;19924;-69
2022/09/08 03:33:09;;;;;;;;;;;22.50;63.80;;;;;;5093074;28;20303;-69
2022/09/08 03:35:35;;;;;;;;;;;22.50;63.80;;;;;;5094361;28;19927;-69
2022/09/08 03:38:00;;;;;;;;;;;22.50;63.80;;;;;;5093347;28;19963;-69
2022/09/08 03:40:26;;;;;;;;;;;22.40;63.70;;;;;;5094228;28;20177;-69
2022/09/08 03:42:52;;;;;;;;;;;22.50;64.50;;;;;;5094203;28;19920;-69
2022/09/08 03:45:18;;;;;;;;;;;22.40;63.70;;;;;;5093141;28;19973;-69
2022/09/08 03:47:43;;;;;;;;;;;22.40;63.70;;;;;;5092727;28;20375;-70
2022/09/08 03:50:10;;;;;;;;;;;22.50;63.70;;;;;;5092669;28;19924;-69
2022/09/08 03:52:35;;;;;;;;;;;22.40;63.70;;;;;;5092408;28;19927;-69
2022/09/08 03:55:01;;;;;;;;;;;22.40;63.70;;;;;;5093742;28;19920;-69
2022/09/08 03:57:27;;;;;;;;;;;22.40;63.70;;;;;;5092954;28;20379;-69
2022/09/08 03:59:54;;;;;;;;;;;22.40;63.70;;;;;;5092891;28;20003;-69
2022/09/08 04:02:20;;;;;;;;;;;22.40;63.70;;;;;;5093761;28;19920;-69
2022/09/08 04:04:47;;;;;;;;;;;22.40;63.80;;;;;;5093842;28;19924;-69
2022/09/08 04:07:13;;;;;;;;;;;22.40;63.70;;;;;;5093853;28;20264;-69
2022/09/08 04:09:38;;;;;;;;;;;22.40;63.70;;;;;;5092367;28;19927;-69
2022/09/08 04:12:05;;;;;;;;;;;22.40;63.70;;;;;;5092628;28;19920;-69
2022/09/08 04:14:31;;;;;;;;;;;22.40;63.70;;;;;;5092311;28;19927;-69
2022/09/08 04:16:57;;;;;;;;;;;22.40;63.70;;;;;;5092742;28;19924;-69
2022/09/08 04:19:22;;;;;;;;;;;22.40;63.70;;;;;;5091585;28;20192;-69
2022/09/08 04:21:48;;;;;;;;;;;22.40;63.60;;;;;;5092281;28;19920;-69
2022/09/08 04:24:14;;;;;;;;;;;22.40;63.60;;;;;;5093435;28;19920;-69
2022/09/08 04:26:40;;;;;;;;;;;22.40;63.60;;;;;;5092361;28;19924;-69
2022/09/08 04:29:06;;;;;;;;;;;22.40;63.60;;;;;;5075389;28;19920;-69
2022/09/08 04:31:34;;;;;;;;;;;22.40;63.60;;;;;;5091685;28;19931;-69
2022/09/08 04:34:00;;;;;;;;;;;22.40;63.60;;;;;;5091885;28;19927;-69
2022/09/08 04:36:26;;;;;;;;;;;22.40;63.60;;;;;;5093386;28;19920;-69
2022/09/08 04:38:53;;;;;;;;;;;22.40;63.60;;;;;;5092357;28;20029;-69
2022/09/08 04:41:18;;;;;;;;;;;22.40;63.50;;;;;;5091871;28;19920;-69
2022/09/08 04:43:44;;;;;;;;;;;22.40;63.60;;;;;;5093455;28;19920;-69
2022/09/08 04:46:11;;;;;;;;;;;22.40;63.60;;;;;;5091689;28;19927;-69
2022/09/08 04:48:37;;;;;;;;;;;22.30;63.50;;;;;;5091617;28;19924;-69
2022/09/08 04:51:06;;;;;;;;;;;22.30;63.50;;;;;;5091710;28;19924;-69
2022/09/08 04:53:33;;;;;;;;;;;22.40;63.60;;;;;;5092101;28;19924;-69
2022/09/08 04:56:00;;;;;;;;;;;22.40;63.60;;;;;;5090960;28;19965;-69
2022/09/08 04:58:27;;;;;;;;;;;22.40;63.60;;;;;;5091261;28;19920;-69
2022/09/08 05:00:53;;;;;;;;;;;22.40;63.60;;;;;;5091574;28;19970;-69
2022/09/08 05:03:18;;;;;;;;;;;22.40;63.50;;;;;;5092638;28;19923;-69
2022/09/08 05:05:44;;;;;;;;;;;22.40;63.60;;;;;;5091584;28;19981;-70
2022/09/08 05:08:09;;;;;;;;;;;22.40;63.60;;;;;;5092762;28;20329;-69
2022/09/08 05:10:35;;;;;;;;;;;22.30;64.30;;;;;;5091276;28;19924;-69
2022/09/08 05:13:01;;;;;;;;;;;22.40;63.60;;;;;;5092659;28;19920;-71
2022/09/08 05:15:26;;;;;;;;;;;22.40;63.60;;;;;;5091647;28;20395;-69
2022/09/08 05:17:52;;;;;;;;;;;22.40;63.60;;;;;;5091257;28;19920;-70
2022/09/08 05:20:18;;;;;;;;;;;22.40;63.50;;;;;;5091335;28;20007;-70
2022/09/08 05:22:43;;;;;;;;;;;22.40;63.50;;;;;;5091275;28;19927;-70
2022/09/08 05:25:09;;;;;;;;;;;22.40;63.50;;;;;;5090405;28;19924;-70
2022/09/08 05:27:35;;;;;;;;;;;22.40;63.60;;;;;;5089491;28;19920;-70
2022/09/08 05:30:00;;;;;;;;;;;22.40;63.60;;;;;;5089452;28;20412;-70
2022/09/08 05:32:26;;;;;;;;;;;22.30;63.50;;;;;;5089857;28;19965;-70
2022/09/08 05:34:52;;;;;;;;;;;22.30;63.50;;;;;;5089482;28;20356;-69
2022/09/08 05:37:17;;;;;;;;;;;22.40;63.50;;;;;;5090289;28;19920;-69
2022/09/08 05:39:43;;;;;;;;;;;22.30;63.50;;;;;;5087629;28;20302;-68
2022/09/08 05:42:08;;;;;;;;;;;22.30;63.50;;;;;;5087033;28;19924;-69
2022/09/08 05:44:34;;;;;;;;;;;22.40;63.50;;;;;;5088849;28;19920;-68
2022/09/08 05:46:59;;;;;;;;;;;22.40;63.70;;;;;;5086675;28;20439;-70
2022/09/08 05:49:25;;;;;;;;;;;22.40;63.80;;;;;;5088537;28;19924;-69
2022/09/08 05:51:52;;;;;;;;;;;22.40;63.90;;;;;;5087844;28;19926;-69
2022/09/08 05:54:19;;;;;;;;;;;22.40;63.60;;;;;;5087884;28;19920;-74
2022/09/08 05:56:44;;;;;;;;;;;22.40;63.60;;;;;;5081268;28;20018;-69
2022/09/08 05:59:10;;;;;;;;;;;22.50;63.70;;;;;;5081579;28;20017;-69
2022/09/08 06:01:35;;;;;;;;;;;22.50;63.70;;;;;;5077636;28;20010;-69
2022/09/08 06:04:02;;;;;;;;;;;22.50;63.70;;;;;;5067633;28;19920;-69
2022/09/08 06:06:29;;;;;;;;;;;22.50;63.70;;;;;;5072370;28;19931;-68
2022/09/08 06:08:55;;;;;;;;;;;22.50;63.80;;;;;;5073824;28;19924;-74
2022/09/08 06:11:21;;;;;;;;;;;22.50;63.90;;;;;;5070014;28;20505;-68
2022/09/08 06:13:46;;;;;;;;;;;22.50;64.00;;;;;;5063398;28;19963;-68
2022/09/08 06:16:13;;;;;;;;;;;22.50;64.00;;;;;;5059612;28;19951;-68
2022/09/08 06:18:40;;;;;;;;;;;22.50;64.00;;;;;;5073642;28;19920;-68
2022/09/08 06:21:06;;;;;;;;;;;22.50;64.10;;;;;;5069088;28;19928;-68
2022/09/08 06:23:32;;;;;;;;;;;22.50;64.20;;;;;;5072995;28;20011;-67
2022/09/08 06:25:58;;;;;;;;;;;22.50;64.10;;;;;;5072728;28;20039;-68
2022/09/08 06:28:42;;;;;;;;;;;22.50;64.50;;;;;;5073866;28;21384;-69
2022/09/08 06:31:08;;;;;;;;;;;22.60;64.60;;;;;;5075108;28;19989;-67
2022/09/08 06:33:39;;;;;;;;;;;22.60;64.60;;;;;;5069334;28;19924;-67
2022/09/08 06:36:10;;;;;;;;;;;22.60;64.70;;;;;;5077707;28;19972;-65
2022/09/08 06:38:39;;;;;;;;;;;22.70;65.10;;;;;;5079217;28;20148;-67
2022/09/08 06:41:09;;;;;;;;;;;22.70;65.40;;;;;;5071801;28;19929;-65
2022/09/08 06:43:38;;;;;;;;;;;22.70;65.70;;;;;;5075007;28;19924;-66
2022/09/08 06:46:07;;;;;;;;;;;22.70;65.80;;;;;;5075754;28;20522;-66
2022/09/08 06:48:34;;;;;;;;;;;22.70;66.00;;;;;;5074677;28;19924;-66
2022/09/08 06:51:19;;;;;;;;;;;22.70;65.80;;;;;;5082059;28;19969;-66
2022/09/08 06:53:51;;;;;;;;;;;22.70;65.90;;;;;;5108853;27;20453;-66
2022/09/08 06:56:37;;;;;;;;;;;22.80;65.90;;;;;;5074238;28;19935;-66
2022/09/08 06:59:07;;;;;;;;;;;22.80;65.90;;;;;;5093189;28;19928;-66
2022/09/08 07:01:41;;;;;;;;;;;22.80;66.10;;;;;;5072010;28;20571;-67
2022/09/08 07:06:54;;;;;;;;;;;22.80;66.40;;;;;;5078308;27;19916;-68
2022/09/08 07:09:23;;;;;;;;;;;22.80;66.10;;;;;;5109633;28;19936;-68
2022/09/08 07:11:54;;;;;;;;;;;22.80;66.60;;;;;;5110766;28;19932;-69
2022/09/08 07:14:32;;;;;;;;;;;22.80;66.50;;;;;;5072965;28;19931;-68
2022/09/08 07:17:09;;;;;;;;;;;22.80;66.40;;;;;;5072660;28;19926;-68
2022/09/08 07:22:36;;;;;;;;;;;22.80;66.50;;;;;;5058077;28;19948;-65
2022/09/08 07:25:19;;;;;;;;;;;22.90;66.70;;;;;;5052535;28;20004;-67
2022/09/08 07:27:47;;;;;;;;;;;22.80;66.70;;;;;;5069386;28;20025;-70
2022/09/08 07:30:15;;;;;;;;;;;22.90;66.80;;;;;;5055363;28;19925;-67
2022/09/08 07:32:42;;;;;;;;;;;22.90;66.90;;;;;;5051610;28;19985;-67
2022/09/08 07:35:12;;;;;;;;;;;22.80;66.90;;;;;;5056702;28;20283;-70
2022/09/08 07:37:40;;;;;;;;;;;22.90;66.50;;;;;;5073778;28;20395;-68
2022/09/08 07:40:16;;;;;;;;;;;22.90;67.60;;;;;;5055428;28;19932;-70
2022/09/08 07:42:42;;;;;;;;;;;22.90;67.00;;;;;;5053659;28;19921;-69
2022/09/08 07:45:10;;;;;;;;;;;22.90;67.00;;;;;;5052061;28;20446;-68
2022/09/08 07:50:55;;;;;;;;;;;22.90;66.80;;;;;;5077013;27;19924;-66
2022/09/08 07:53:30;;;;;;;;;;;22.90;66.80;;;;;;5075227;28;19920;-69
2022/09/08 07:55:57;;;;;;;;;;;22.90;67.10;;;;;;5073385;28;19978;-70
2022/09/08 07:58:28;;;;;;;;;;;22.90;67.40;;;;;;5075706;28;20504;-70
2022/09/08 08:01:00;;;;;;;;;;;22.90;67.40;;;;;;5076779;28;19928;-71
2022/09/08 08:09:03;;;;;;;;;;;22.90;67.30;;;;;;5076928;27;20267;-68
2022/09/08 08:11:48;;;;;;;;;;;22.90;67.10;;;;;;5071018;28;19925;-67
2022/09/08 08:14:33;;;;;;;;;;;22.90;66.90;;;;;;5066522;28;19924;-68
2022/09/08 08:17:09;;;;;;;;;;;22.90;67.40;;;;;;5070705;28;19920;-69
2022/09/08 08:19:42;;;;;;;;;;;23.00;67.40;;;;;;5066601;28;19967;-70
2022/09/08 08:22:19;;;;;;;;;;;23.00;67.20;;;;;;5069020;28;19965;-70
2022/09/08 08:27:35;;;;;;;;;;;22.90;66.90;;;;;;5060089;28;19927;-66
2022/09/08 08:30:10;;;;;;;;;;;22.90;67.00;;;;;;5054527;28;19963;-67
2022/09/08 08:32:37;;;;;;;;;;;23.00;67.40;;;;;;5052874;28;19955;-66
2022/09/08 08:35:23;;;;;;;;;;;23.00;67.90;;;;;;5080075;28;20002;-69
2022/09/08 08:37:50;;;;;;;;;;;23.00;68.10;;;;;;5076171;28;19995;-66
2022/09/08 08:40:24;;;;;;;;;;;23.00;68.00;;;;;;5060671;28;19973;-67
2022/09/08 08:51:16;;;;;;;;;;;23.10;67.70;;;;;;5074431;27;20393;-65
2022/09/08 09:01:59;;;;;;;;;;;23.10;68.00;;;;;;5054984;28;19923;-71
2022/09/08 09:04:45;;;;;;;;;;;23.10;68.00;;;;;;5040287;28;20270;-67
2022/09/08 09:10:14;;;;;;;;;;;23.10;67.90;;;;;;5088488;27;20115;-68
2022/09/08 09:18:27;;;;;;;;;;;23.10;67.90;;;;;;5089872;27;19916;-70
2022/09/08 09:20:56;;;;;;;;;;;23.10;68.40;;;;;;5073870;28;20675;-71
2022/09/08 09:26:19;;;;;;;;;;;23.10;68.40;;;;;;5069768;28;19925;-69
2022/09/08 09:28:54;;;;;;;;;;;23.00;68.70;;;;;;5051322;28;19982;-72
2022/09/08 09:34:21;;;;;;;;;;;23.00;68.50;;;;;;5055138;28;19916;-76
2022/09/08 09:36:55;;;;;;;;;;;23.10;68.40;;;;;;5034180;28;20051;-83
2022/09/08 09:42:22;;;;;;;;;;;23.10;68.30;;;;;;5057439;28;20688;-67
2022/09/08 09:45:08;;;;;;;;;;;23.10;68.20;;;;;;5053253;28;20058;-66
2022/09/08 09:47:41;;;;;;;;;;;23.10;68.20;;;;;;5051107;28;20002;-68
2022/09/08 09:50:28;;;;;;;;;;;23.10;68.00;;;;;;5056184;28;19925;-68
2022/09/08 09:53:14;;;;;;;;;;;23.10;67.90;;;;;;5052386;28;19925;-70
2022/09/08 09:55:49;;;;;;;;;;;23.10;67.80;;;;;;5070828;28;19925;-68
2022/09/08 09:58:35;;;;;;;;;;;23.10;67.80;;;;;;5052973;28;19975;-66
2022/09/08 10:01:08;;;;;;;;;;;23.00;67.70;;;;;;5066840;28;20439;-67
2022/09/08 10:03:53;;;;;;;;;;;23.10;67.60;;;;;;5052862;28;19935;-66
2022/09/08 10:06:23;;;;;;;;;;;23.00;67.60;;;;;;5072248;28;20481;-66
2022/09/08 10:09:03;;;;;;;;;;;23.00;67.80;;;;;;5058311;28;19933;-66
2022/09/08 10:11:37;;;;;;;;;;;23.10;67.80;;;;;;5066906;28;19932;-73
2022/09/08 10:16:53;;;;;;;;;;;23.10;67.70;;;;;;5086892;27;19924;-69
2022/09/08 10:19:39;;;;;;;;;;;23.10;67.40;;;;;;5072354;28;19935;-69
2022/09/08 10:22:14;;;;;;;;;;;23.10;67.50;;;;;;5086113;28;19926;-70
2022/09/08 10:25:00;;;;;;;;;;;23.10;67.50;;;;;;5083929;28;19924;-70
2022/09/08 10:27:44;;;;;;;;;;;23.10;67.50;;;;;;5072111;28;20012;-73
2022/09/08 10:30:30;;;;;;;;;;;23.20;67.50;;;;;;5070547;28;19920;-72
2022/09/08 10:35:52;;;;;;;;;;;23.10;67.50;;;;;;5087927;27;19920;-67
2022/09/08 10:41:19;;;;;;;;;;;23.10;67.60;;;;;;5068554;28;19935;-66
2022/09/08 10:44:00;;;;;;;;;;;23.10;67.50;;;;;;5064282;28;20583;-67
2022/09/08 10:46:46;;;;;;;;;;;23.10;67.70;;;;;;5063086;28;19931;-67
2022/09/08 10:57:43;;;;;;;;;;;23.10;67.90;;;;;;5066685;28;19927;-70
2022/09/08 11:03:12;;;;;;;;;;;23.10;68.00;;;;;;5084545;27;19920;-69
2022/09/08 11:08:39;;;;;;;;;;;23.20;68.40;;;;;;5061531;28;19923;-67
2022/09/08 11:11:11;;;;;;;;;;;23.20;68.20;;;;;;5032500;28;19928;-65
2022/09/08 11:13:58;;;;;;;;;;;23.20;68.50;;;;;;5050083;28;19926;-65
2022/09/08 11:16:30;;;;;;;;;;;23.20;68.50;;;;;;5031673;28;19933;-67
2022/09/08 11:19:16;;;;;;;;;;;23.20;68.40;;;;;;5025728;28;19929;-66
2022/09/08 11:21:47;;;;;;;;;;;23.30;68.50;;;;;;5036075;28;19925;-70
2022/09/08 11:24:33;;;;;;;;;;;23.30;68.50;;;;;;5049409;28;19936;-74
2022/09/08 11:30:03;;;;;;;;;;;23.40;68.70;;;;;;5057842;27;19950;-71
2022/09/08 11:32:40;;;;;;;;;;;23.40;68.80;;;;;;5057775;28;19967;-68
2022/09/08 11:35:18;;;;;;;;;;;23.40;69.60;;;;;;5056688;28;19928;-70
2022/09/08 11:40:30;;;;;;;;;;;23.40;68.70;;;;;;5086331;27;19921;-67
2022/09/08 11:43:16;;;;;;;;;;;23.50;69.00;;;;;;5071581;28;20928;-69
2022/09/08 11:46:01;;;;;;;;;;;23.50;68.90;;;;;;5058662;28;20014;-69
2022/09/08 11:48:36;;;;;;;;;;;23.50;68.70;;;;;;5046384;28;19955;-70
2022/09/08 11:51:13;;;;;;;;;;;23.60;69.10;;;;;;5058048;28;20064;-70
2022/09/08 11:56:29;;;;;;;;;;;23.60;68.70;;;;;;5072548;27;19920;-66
2022/09/08 11:59:14;;;;;;;;;;;23.60;69.00;;;;;;5058689;28;19999;-69
2022/09/08 12:04:45;;;;;;;;;;;23.70;68.90;;;;;;5092001;27;1918295;-69
2022/09/08 12:07:21;;;;;;;;;;;23.70;68.90;;;;;;5132136;27;19988;-67
2022/09/08 12:09:54;;;;;;;;;;;23.70;68.80;;;;;;5131106;27;19927;-68
2022/09/08 12:12:39;;;;;;;;;;;23.70;69.10;;;;;;5130974;27;20139;-75
2022/09/08 12:15:27;;;;;;;;;;;23.70;68.90;;;;;;5133230;27;19995;-73
2022/09/08 12:23:42;;;;;;;;;;;23.70;69.20;;;;;;5115952;27;1869563;-73
2022/09/08 12:26:27;;;;;;;;;;;23.80;69.40;;;;;;5144976;27;20382;-69
2022/09/08 12:29:01;;;;;;;;;;;23.80;69.00;;;;;;5149651;27;19964;-68
2022/09/08 12:31:35;;;;;;;;;;;23.80;68.90;;;;;;5155836;27;19934;-66
2022/09/08 12:34:20;;;;;;;;;;;23.80;68.90;;;;;;5152559;27;19950;-66
2022/09/08 12:36:49;;;;;;;;;;;23.80;68.80;;;;;;5150987;27;20431;-66
2022/09/08 12:39:35;;;;;;;;;;;23.80;68.90;;;;;;5157188;27;19922;-73
2022/09/08 12:42:09;;;;;;;;;;;23.80;68.60;;;;;;5148726;27;19958;-70
2022/09/08 12:47:38;;;;;;;;;;;23.80;68.50;;;;;;5101827;27;1859294;-71
2022/09/08 12:50:24;;;;;;;;;;;23.90;68.60;;;;;;5139855;27;19923;-74
2022/09/08 12:53:09;;;;;;;;;;;23.80;68.60;;;;;;5138366;27;19924;-69
2022/09/08 12:55:39;;;;;;;;;;;23.90;68.70;;;;;;5143496;27;19922;-74
2022/09/08 12:58:05;;;;;;;;;;;23.90;68.90;;;;;;5131895;27;19923;-70
2022/09/08 13:00:34;;;;;;;;;;;23.80;68.80;;;;;;5143903;27;19926;-73
2022/09/08 13:05:55;;;;;;;;;;;23.80;68.60;;;;;;5091427;27;19927;-69
2022/09/08 13:11:21;;;;;;;;;;;23.80;68.30;;;;;;5132808;27;20431;-70
2022/09/08 13:13:48;;;;;;;;;;;23.90;68.30;;;;;;5115829;27;19931;-67
2022/09/08 13:16:20;;;;;;;;;;;23.80;68.40;;;;;;5113720;28;19920;-71
2022/09/08 13:30:08;;;;;;;;;;;23.80;68.10;;;;;;5087472;27;19916;-68
2022/09/08 13:35:20;;;;;;;;;;;23.80;67.90;;;;;;5063145;28;19917;-68
2022/09/08 13:46:10;;;;;;;;;;;23.70;67.50;;;;;;5061218;28;19923;-70
2022/09/08 13:48:46;;;;;;;;;;;23.80;67.50;;;;;;5071587;28;20051;-70
2022/09/08 13:54:27;;;;;;;;;;;23.80;67.40;;;;;;5094141;27;19930;-68
2022/09/08 13:57:12;;;;;;;;;;;23.70;67.30;;;;;;5109977;28;20384;-75
2022/09/08 13:59:58;;;;;;;;;;;23.70;67.20;;;;;;5078255;28;19928;-70
2022/09/08 14:02:35;;;;;;;;;;;23.70;67.10;;;;;;5070038;28;20324;-71
2022/09/08 14:05:04;;;;;;;;;;;23.70;67.10;;;;;;5073327;28;19927;-70
2022/09/08 14:07:31;;;;;;;;;;;23.60;67.10;;;;;;5072397;28;19925;-71
2022/09/08 14:12:53;;;;;;;;;;;23.60;67.00;;;;;;5076647;28;20407;-71
2022/09/08 14:15:20;;;;;;;;;;;23.50;67.00;;;;;;5070060;28;19920;-70
2022/09/08 14:23:24;;;;;;;;;;;23.50;67.00;;;;;;5089540;27;19912;-70
2022/09/08 14:25:50;;;;;;;;;;;23.50;67.00;;;;;;5060816;28;19924;-70
2022/09/08 14:28:18;;;;;;;;;;;23.50;67.00;;;;;;5079136;28;19928;-70
2022/09/08 14:30:49;;;;;;;;;;;23.50;67.00;;;;;;5063680;28;20607;-69
2022/09/08 14:35:54;;;;;;;;;;;23.50;67.00;;;;;;5110237;27;1858928;-74
2022/09/08 14:41:18;;;;;;;;;;;23.50;67.10;;;;;;5075097;28;19923;-67
2022/09/08 14:57:26;;;;;;;;;;;23.50;67.00;;;;;;5102876;27;20446;-70
2022/09/08 15:02:48;;;;;;;;;;;23.50;67.00;;;;;;5117548;27;1851954;-70
2022/09/08 15:05:16;;;;;;;;;;;23.50;66.90;;;;;;5161028;27;19919;-69
2022/09/08 15:07:50;;;;;;;;;;;23.40;66.90;;;;;;5154812;27;20290;-70
2022/09/08 15:10:20;;;;;;;;;;;23.50;66.90;;;;;;5172483;27;20290;-70
2022/09/08 15:15:34;;;;;;;;;;;23.50;66.80;;;;;;5101977;27;1873404;-70
2022/09/08 15:18:11;;;;;;;;;;;23.50;66.70;;;;;;5149776;27;19942;-70
2022/09/08 15:20:36;;;;;;;;;;;23.50;66.70;;;;;;5150781;27;19919;-69
2022/09/08 15:23:22;;;;;;;;;;;23.50;66.60;;;;;;5151488;27;20454;-70
2022/09/08 15:29:01;;;;;;;;;;;23.40;66.50;;;;;;5107245;27;20371;-70
2022/09/08 15:31:32;;;;;;;;;;;23.50;66.40;;;;;;5106971;28;20424;-70
2022/09/08 15:36:58;;;;;;;;;;;23.40;66.40;;;;;;5086634;28;19934;-69
2022/09/08 15:39:46;;;;;;;;;;;23.40;66.40;;;;;;5086112;28;19920;-70
2022/09/08 15:42:32;;;;;;;;;;;23.40;66.30;;;;;;5075362;28;19974;-70
2022/09/08 15:47:43;;;;;;;;;;;23.40;66.40;;;;;;5089059;28;20288;-69
2022/09/08 15:52:59;;;;;;;;;;;23.40;66.30;;;;;;5107657;27;19912;-69
2022/09/08 15:55:45;;;;;;;;;;;23.40;66.20;;;;;;5107886;28;20015;-69
2022/09/08 15:58:31;;;;;;;;;;;23.40;66.30;;;;;;5107904;28;19969;-69
2022/09/08 16:03:50;;;;;;;;;;;23.40;66.20;;;;;;5089277;28;19919;-69
2022/09/08 16:06:19;;;;;;;;;;;23.40;66.10;;;;;;5088185;28;19920;-69
2022/09/08 16:08:56;;;;;;;;;;;23.30;66.10;;;;;;5087909;28;19967;-69
2022/09/08 16:14:11;;;;;;;;;;;23.30;65.90;;;;;;5089568;28;19913;-69
2022/09/08 16:19:35;;;;;;;;;;;23.30;65.90;;;;;;5109315;27;19912;-69
2022/09/08 16:30:37;;;;;;;;;;;23.30;65.80;;;;;;5088771;28;20283;-70
2022/09/08 16:38:49;;;;;;;;;;;23.30;65.80;;;;;;5088643;28;20293;-69
2022/09/08 16:41:26;;;;;;;;;;;23.30;65.80;;;;;;5088807;28;19921;-69
2022/09/08 16:44:12;;;;;;;;;;;23.20;65.80;;;;;;5089270;28;19920;-69
2022/09/08 16:46:38;;;;;;;;;;;23.20;65.80;;;;;;5104622;28;19927;-69
2022/09/08 16:52:11;;;;;;;;;;;23.20;65.90;;;;;;5109323;27;19913;-69
2022/09/08 16:54:44;;;;;;;;;;;23.20;65.80;;;;;;5108263;28;19930;-69
2022/09/08 16:57:30;;;;;;;;;;;23.20;65.90;;;;;;5108213;28;19920;-69
2022/09/08 17:00:05;;;;;;;;;;;23.10;65.80;;;;;;5107752;28;19920;-69
2022/09/08 17:02:40;;;;;;;;;;;23.10;65.90;;;;;;5107371;28;20386;-69
2022/09/08 17:05:17;;;;;;;;;;;23.10;65.90;;;;;;5108218;28;20030;-69
2022/09/08 17:07:47;;;;;;;;;;;23.10;65.90;;;;;;5108134;28;20022;-69
2022/09/08 17:13:09;;;;;;;;;;;23.10;66.00;;;;;;5109316;27;19912;-69
2022/09/08 17:15:47;;;;;;;;;;;23.00;65.90;;;;;;5108594;28;19927;-69
2022/09/08 17:18:26;;;;;;;;;;;23.00;66.00;;;;;;5142434;27;19927;-71
2022/09/08 17:21:11;;;;;;;;;;;23.00;66.00;;;;;;5108201;28;19920;-69
2022/09/08 17:23:45;;;;;;;;;;;23.00;66.10;;;;;;5108853;28;20335;-69
2022/09/08 17:29:26;;;;;;;;;;;22.90;66.10;;;;;;5089185;28;19912;-69
2022/09/08 17:31:52;;;;;;;;;;;22.90;66.10;;;;;;5087264;28;19959;-69
2022/09/08 17:34:35;;;;;;;;;;;22.90;66.10;;;;;;5089385;28;20029;-70
2022/09/08 17:37:09;;;;;;;;;;;22.90;66.10;;;;;;5074095;28;20593;-69
2022/09/08 17:45:10;;;;;;;;;;;22.90;66.20;;;;;;5124433;27;19924;-69
2022/09/08 17:50:23;;;;;;;;;;;22.90;66.20;;;;;;5088620;28;19912;-69
2022/09/08 17:52:58;;;;;;;;;;;22.80;66.20;;;;;;5104405;28;19930;-69
2022/09/08 17:55:33;;;;;;;;;;;22.80;66.20;;;;;;5088369;28;19920;-69
2022/09/08 17:58:19;;;;;;;;;;;22.80;66.20;;;;;;5087664;28;19999;-70
2022/09/08 18:00:49;;;;;;;;;;;22.80;66.10;;;;;;5087776;28;19927;-69
2022/09/08 18:06:07;;;;;;;;;;;22.80;66.10;;;;;;5109733;27;20319;-70
2022/09/08 18:08:34;;;;;;;;;;;22.80;66.10;;;;;;5108661;28;19923;-69
2022/09/08 18:11:21;;;;;;;;;;;22.70;66.10;;;;;;5107620;28;19931;-70
2022/09/08 18:13:46;;;;;;;;;;;22.80;66.10;;;;;;5109119;28;19994;-70
2022/09/08 18:16:33;;;;;;;;;;;22.70;66.10;;;;;;5097713;28;20380;-69
2022/09/08 18:19:03;;;;;;;;;;;22.80;66.20;;;;;;5088181;28;19927;-69